sensor_id;sensor_type;location;lat;lon;timestamp;pressure;altitude;pressure_sealevel;temperature;humidity
25584;BME280;13463;51.526;9.928;2024-02-23T00:02:11;97000.16;;;9.40;90.32
25584;BME280;13463;51.526;9.928;2024-02-23T00:04:38;97001.63;;;9.43;86.83
25584;BME280;13463;51.526;9.928;2024-02-23T00:07:04;96994.78;;;9.50;84.78
25584;BME280;13463;51.526;9.928;2024-02-23T00:09:31;97013.66;;;9.55;83.65
25584;BME280;13463;51.526;9.928;2024-02-23T00:11:58;97014.97;;;9.51;83.28
25584;BME280;13463;51.526;9.928;2024-02-23T00:14:24;97022.59;;;9.54;80.66
25584;BME280;13463;51.526;9.928;2024-02-23T00:16:51;97015.13;;;9.49;81.01
25584;BME280;13463;51.526;9.928;2024-02-23T00:19:18;97029.47;;;9.47;81.74
25584;BME280;13463;51.526;9.928;2024-02-23T00:21:46;97029.19;;;9.50;81.19
25584;BME280;13463;51.526;9.928;2024-02-23T00:24:17;97022.06;;;9.50;79.67
25584;BME280;13463;51.526;9.928;2024-02-23T00:26:43;97018.97;;;9.37;80.23
25584;BME280;13463;51.526;9.928;2024-02-23T00:29:12;97022.44;;;9.37;79.42
25584;BME280;13463;51.526;9.928;2024-02-23T00:31:39;97029.09;;;9.42;78.55
25584;BME280;13463;51.526;9.928;2024-02-23T00:34:09;97036.53;;;9.28;77.48
25584;BME280;13463;51.526;9.928;2024-02-23T00:36:41;97048.41;;;9.24;77.54
25584;BME280;13463;51.526;9.928;2024-02-23T00:39:08;97055.03;;;9.28;76.05
25584;BME280;13463;51.526;9.928;2024-02-23T00:41:35;97055.34;;;9.25;76.20
25584;BME280;13463;51.526;9.928;2024-02-23T00:44:04;97068.75;;;9.14;77.28
25584;BME280;13463;51.526;9.928;2024-02-23T00:46:31;97089.34;;;9.20;78.68
25584;BME280;13463;51.526;9.928;2024-02-23T00:48:58;97094.22;;;9.15;78.53
25584;BME280;13463;51.526;9.928;2024-02-23T00:51:25;97086.69;;;9.20;76.53
25584;BME280;13463;51.526;9.928;2024-02-23T00:53:52;97088.50;;;9.20;76.70
25584;BME280;13463;51.526;9.928;2024-02-23T00:56:18;97120.75;;;9.23;75.80
25584;BME280;13463;51.526;9.928;2024-02-23T00:58:48;97122.22;;;9.35;74.43
25584;BME280;13463;51.526;9.928;2024-02-23T01:01:15;97133.81;;;9.34;74.61
25584;BME280;13463;51.526;9.928;2024-02-23T01:03:42;97159.84;;;9.29;75.76
25584;BME280;13463;51.526;9.928;2024-02-23T01:06:09;97183.69;;;9.20;79.66
25584;BME280;13463;51.526;9.928;2024-02-23T01:08:36;97189.47;;;8.96;83.06
25584;BME280;13463;51.526;9.928;2024-02-23T01:11:03;97189.50;;;8.77;83.99
25584;BME280;13463;51.526;9.928;2024-02-23T01:13:29;97191.81;;;8.80;83.16
25584;BME280;13463;51.526;9.928;2024-02-23T01:15:56;97222.75;;;8.60;79.48
25584;BME280;13463;51.526;9.928;2024-02-23T01:18:23;97220.09;;;8.51;79.59
25584;BME280;13463;51.526;9.928;2024-02-23T01:20:49;97220.50;;;8.37;77.90
25584;BME280;13463;51.526;9.928;2024-02-23T01:23:16;97233.84;;;8.35;79.40
25584;BME280;13463;51.526;9.928;2024-02-23T01:25:43;97245.50;;;8.33;76.43
25584;BME280;13463;51.526;9.928;2024-02-23T01:28:09;97252.59;;;8.42;75.50
25584;BME280;13463;51.526;9.928;2024-02-23T01:30:36;97262.47;;;8.30;75.78
25584;BME280;13463;51.526;9.928;2024-02-23T01:33:02;97258.28;;;8.37;74.25
25584;BME280;13463;51.526;9.928;2024-02-23T01:35:29;97266.09;;;8.39;75.10
25584;BME280;13463;51.526;9.928;2024-02-23T01:37:57;97264.41;;;8.38;73.33
25584;BME280;13463;51.526;9.928;2024-02-23T01:40:23;97266.63;;;8.33;72.93
25584;BME280;13463;51.526;9.928;2024-02-23T01:43:09;97273.03;;;8.40;71.37
25584;BME280;13463;51.526;9.928;2024-02-23T01:45:35;97276.25;;;8.43;70.43
25584;BME280;13463;51.526;9.928;2024-02-23T01:48:02;97299.44;;;8.40;70.75
25584;BME280;13463;51.526;9.928;2024-02-23T01:50:29;97298.06;;;8.36;71.11
25584;BME280;13463;51.526;9.928;2024-02-23T01:53:00;97304.97;;;8.37;70.98
25584;BME280;13463;51.526;9.928;2024-02-23T01:55:27;97298.47;;;8.41;71.88
25584;BME280;13463;51.526;9.928;2024-02-23T01:57:58;97314.44;;;8.39;71.19
25584;BME280;13463;51.526;9.928;2024-02-23T02:00:25;97317.06;;;8.30;71.99
25584;BME280;13463;51.526;9.928;2024-02-23T02:02:53;97333.34;;;8.35;70.98
25584;BME280;13463;51.526;9.928;2024-02-23T02:05:19;97321.88;;;8.25;70.72
25584;BME280;13463;51.526;9.928;2024-02-23T02:07:47;97324.47;;;8.36;70.93
25584;BME280;13463;51.526;9.928;2024-02-23T02:10:17;97347.22;;;8.37;70.93
25584;BME280;13463;51.526;9.928;2024-02-23T02:12:44;97336.06;;;8.24;70.55
25584;BME280;13463;51.526;9.928;2024-02-23T02:15:10;97344.16;;;8.32;71.33
25584;BME280;13463;51.526;9.928;2024-02-23T02:17:37;97357.44;;;8.21;70.84
25584;BME280;13463;51.526;9.928;2024-02-23T02:20:04;97347.69;;;8.12;72.50
25584;BME280;13463;51.526;9.928;2024-02-23T02:22:34;97356.53;;;8.01;73.22
25584;BME280;13463;51.526;9.928;2024-02-23T02:25:01;97358.06;;;8.03;75.08
25584;BME280;13463;51.526;9.928;2024-02-23T02:27:28;97362.22;;;7.96;74.75
25584;BME280;13463;51.526;9.928;2024-02-23T02:29:54;97374.09;;;8.12;73.78
25584;BME280;13463;51.526;9.928;2024-02-23T02:32:21;97378.88;;;7.97;74.64
25584;BME280;13463;51.526;9.928;2024-02-23T02:34:48;97381.66;;;7.95;74.31
25584;BME280;13463;51.526;9.928;2024-02-23T02:37:14;97387.06;;;7.94;75.75
25584;BME280;13463;51.526;9.928;2024-02-23T02:39:41;97404.56;;;7.95;75.80
25584;BME280;13463;51.526;9.928;2024-02-23T02:42:08;97396.50;;;7.96;76.57
25584;BME280;13463;51.526;9.928;2024-02-23T02:44:34;97400.41;;;7.92;76.86
25584;BME280;13463;51.526;9.928;2024-02-23T02:47:01;97419.13;;;7.89;79.85
25584;BME280;13463;51.526;9.928;2024-02-23T02:49:28;97407.25;;;8.04;82.76
25584;BME280;13463;51.526;9.928;2024-02-23T02:51:54;97413.19;;;7.76;87.10
25584;BME280;13463;51.526;9.928;2024-02-23T02:54:21;97432.31;;;7.48;91.44
25584;BME280;13463;51.526;9.928;2024-02-23T02:56:47;97427.88;;;7.28;94.77
25584;BME280;13463;51.526;9.928;2024-02-23T02:59:16;97437.44;;;7.29;93.92
25584;BME280;13463;51.526;9.928;2024-02-23T03:01:44;97434.00;;;7.17;95.32
25584;BME280;13463;51.526;9.928;2024-02-23T03:04:13;97436.56;;;7.08;96.56
25584;BME280;13463;51.526;9.928;2024-02-23T03:06:40;97444.47;;;7.08;97.44
25584;BME280;13463;51.526;9.928;2024-02-23T03:09:06;97448.31;;;7.04;96.95
25584;BME280;13463;51.526;9.928;2024-02-23T03:11:33;97449.41;;;7.01;94.26
25584;BME280;13463;51.526;9.928;2024-02-23T03:14:00;97439.84;;;7.21;93.05
25584;BME280;13463;51.526;9.928;2024-02-23T03:16:27;97452.84;;;7.13;90.77
25584;BME280;13463;51.526;9.928;2024-02-23T03:18:55;97459.28;;;7.20;87.95
25584;BME280;13463;51.526;9.928;2024-02-23T03:21:22;97463.16;;;7.36;81.89
25584;BME280;13463;51.526;9.928;2024-02-23T03:23:48;97461.75;;;7.32;81.50
25584;BME280;13463;51.526;9.928;2024-02-23T03:26:15;97469.66;;;7.32;80.79
25584;BME280;13463;51.526;9.928;2024-02-23T03:28:43;97479.59;;;7.29;79.84
25584;BME280;13463;51.526;9.928;2024-02-23T03:31:10;97470.22;;;7.36;79.39
25584;BME280;13463;51.526;9.928;2024-02-23T03:33:37;97494.41;;;7.41;79.10
25584;BME280;13463;51.526;9.928;2024-02-23T03:36:04;97489.78;;;7.33;79.67
25584;BME280;13463;51.526;9.928;2024-02-23T03:38:31;97496.19;;;7.20;80.83
25584;BME280;13463;51.526;9.928;2024-02-23T03:40:58;97501.69;;;7.17;81.38
25584;BME280;13463;51.526;9.928;2024-02-23T03:43:25;97501.69;;;7.17;81.24
25584;BME280;13463;51.526;9.928;2024-02-23T03:45:51;97505.63;;;7.22;81.37
25584;BME280;13463;51.526;9.928;2024-02-23T03:48:18;97501.91;;;7.25;81.92
25584;BME280;13463;51.526;9.928;2024-02-23T03:50:45;97519.44;;;7.15;82.77
25584;BME280;13463;51.526;9.928;2024-02-23T03:53:12;97520.75;;;7.09;83.59
25584;BME280;13463;51.526;9.928;2024-02-23T03:55:39;97525.06;;;7.10;82.84
25584;BME280;13463;51.526;9.928;2024-02-23T03:58:05;97529.38;;;7.11;83.02
25584;BME280;13463;51.526;9.928;2024-02-23T04:00:32;97526.66;;;6.91;84.49
25584;BME280;13463;51.526;9.928;2024-02-23T04:02:59;97542.94;;;6.73;84.22
25584;BME280;13463;51.526;9.928;2024-02-23T04:05:25;97551.56;;;6.76;83.88
25584;BME280;13463;51.526;9.928;2024-02-23T04:07:52;97554.22;;;6.64;85.02
25584;BME280;13463;51.526;9.928;2024-02-23T04:10:19;97563.41;;;6.59;84.58
25584;BME280;13463;51.526;9.928;2024-02-23T04:12:46;97565.56;;;6.54;84.59
25584;BME280;13463;51.526;9.928;2024-02-23T04:15:13;97567.84;;;6.47;85.95
25584;BME280;13463;51.526;9.928;2024-02-23T04:17:40;97573.94;;;6.48;86.20
25584;BME280;13463;51.526;9.928;2024-02-23T04:20:08;97573.09;;;6.58;85.05
25584;BME280;13463;51.526;9.928;2024-02-23T04:22:37;97577.16;;;6.51;85.28
25584;BME280;13463;51.526;9.928;2024-02-23T04:25:04;97587.97;;;6.48;85.63
25584;BME280;13463;51.526;9.928;2024-02-23T04:27:31;97587.34;;;6.34;86.38
25584;BME280;13463;51.526;9.928;2024-02-23T04:29:58;97584.22;;;6.40;86.16
25584;BME280;13463;51.526;9.928;2024-02-23T04:32:25;97594.97;;;6.37;84.36
25584;BME280;13463;51.526;9.928;2024-02-23T04:34:51;97593.66;;;6.42;84.37
25584;BME280;13463;51.526;9.928;2024-02-23T04:37:18;97590.81;;;6.45;83.84
25584;BME280;13463;51.526;9.928;2024-02-23T04:39:44;97603.16;;;6.67;81.88
25584;BME280;13463;51.526;9.928;2024-02-23T04:42:11;97612.84;;;6.66;81.03
25584;BME280;13463;51.526;9.928;2024-02-23T04:44:38;97602.09;;;6.69;81.83
25584;BME280;13463;51.526;9.928;2024-02-23T04:47:04;97606.66;;;6.79;81.60
25584;BME280;13463;51.526;9.928;2024-02-23T04:49:31;97619.00;;;6.89;80.38
25584;BME280;13463;51.526;9.928;2024-02-23T04:51:58;97621.38;;;6.81;82.16
25584;BME280;13463;51.526;9.928;2024-02-23T04:54:24;97627.47;;;6.70;80.28
25584;BME280;13463;51.526;9.928;2024-02-23T04:56:51;97635.34;;;6.70;81.27
25584;BME280;13463;51.526;9.928;2024-02-23T04:59:18;97641.84;;;6.78;80.72
25584;BME280;13463;51.526;9.928;2024-02-23T05:01:44;97629.28;;;6.92;80.27
25584;BME280;13463;51.526;9.928;2024-02-23T05:04:11;97643.19;;;6.94;78.05
25584;BME280;13463;51.526;9.928;2024-02-23T05:06:37;97646.63;;;6.95;77.24
25584;BME280;13463;51.526;9.928;2024-02-23T05:09:04;97651.41;;;6.79;78.25
25584;BME280;13463;51.526;9.928;2024-02-23T05:11:35;97649.00;;;6.76;78.90
25584;BME280;13463;51.526;9.928;2024-02-23T05:14:02;97656.22;;;6.96;77.90
25584;BME280;13463;51.526;9.928;2024-02-23T05:16:28;97660.25;;;6.78;78.53
25584;BME280;13463;51.526;9.928;2024-02-23T05:18:55;97655.25;;;6.86;78.78
25584;BME280;13463;51.526;9.928;2024-02-23T05:21:22;97660.88;;;6.92;78.55
25584;BME280;13463;51.526;9.928;2024-02-23T05:23:48;97669.28;;;6.86;77.97
25584;BME280;13463;51.526;9.928;2024-02-23T05:26:15;97674.88;;;6.70;79.09
25584;BME280;13463;51.526;9.928;2024-02-23T05:28:41;97680.41;;;6.79;77.77
25584;BME280;13463;51.526;9.928;2024-02-23T05:31:09;97684.81;;;6.67;76.89
25584;BME280;13463;51.526;9.928;2024-02-23T05:33:36;97680.88;;;6.72;75.34
25584;BME280;13463;51.526;9.928;2024-02-23T05:36:05;97680.34;;;6.56;75.09
25584;BME280;13463;51.526;9.928;2024-02-23T05:38:32;97687.53;;;6.54;75.43
25584;BME280;13463;51.526;9.928;2024-02-23T05:40:59;97679.63;;;6.54;75.89
25584;BME280;13463;51.526;9.928;2024-02-23T05:43:26;97690.66;;;6.59;76.87
25584;BME280;13463;51.526;9.928;2024-02-23T05:45:52;97686.53;;;6.44;77.51
25584;BME280;13463;51.526;9.928;2024-02-23T05:48:20;97684.53;;;6.59;77.74
25584;BME280;13463;51.526;9.928;2024-02-23T05:50:47;97689.66;;;6.49;80.19
25584;BME280;13463;51.526;9.928;2024-02-23T05:53:14;97689.88;;;6.46;81.37
25584;BME280;13463;51.526;9.928;2024-02-23T05:55:40;97698.06;;;6.54;81.47
25584;BME280;13463;51.526;9.928;2024-02-23T05:58:07;97697.44;;;6.51;82.79
25584;BME280;13463;51.526;9.928;2024-02-23T06:00:34;97701.19;;;6.59;82.48
25584;BME280;13463;51.526;9.928;2024-02-23T06:03:01;97710.00;;;6.47;83.27
25584;BME280;13463;51.526;9.928;2024-02-23T06:05:28;97715.28;;;6.58;83.21
25584;BME280;13463;51.526;9.928;2024-02-23T06:07:55;97715.72;;;6.41;85.53
25584;BME280;13463;51.526;9.928;2024-02-23T06:10:22;97721.72;;;6.43;84.29
25584;BME280;13463;51.526;9.928;2024-02-23T06:12:49;97724.28;;;6.32;86.37
25584;BME280;13463;51.526;9.928;2024-02-23T06:15:18;97722.84;;;6.28;88.31
25584;BME280;13463;51.526;9.928;2024-02-23T06:17:45;97736.50;;;6.33;85.63
25584;BME280;13463;51.526;9.928;2024-02-23T06:20:12;97738.88;;;6.25;88.14
25584;BME280;13463;51.526;9.928;2024-02-23T06:22:39;97740.97;;;6.20;88.90
25584;BME280;13463;51.526;9.928;2024-02-23T06:25:05;97733.09;;;6.20;89.21
25584;BME280;13463;51.526;9.928;2024-02-23T06:27:33;97729.00;;;6.16;89.20
25584;BME280;13463;51.526;9.928;2024-02-23T06:29:59;97735.38;;;6.25;86.87
25584;BME280;13463;51.526;9.928;2024-02-23T06:32:26;97735.00;;;6.18;87.12
25584;BME280;13463;51.526;9.928;2024-02-23T06:34:53;97742.47;;;6.24;87.85
25584;BME280;13463;51.526;9.928;2024-02-23T06:37:23;97736.22;;;6.25;87.50
25584;BME280;13463;51.526;9.928;2024-02-23T06:39:49;97735.13;;;6.17;87.82
25584;BME280;13463;51.526;9.928;2024-02-23T06:42:21;97748.19;;;6.29;87.19
25584;BME280;13463;51.526;9.928;2024-02-23T06:44:47;97746.47;;;6.17;89.46
25584;BME280;13463;51.526;9.928;2024-02-23T06:47:14;97752.16;;;6.24;89.86
25584;BME280;13463;51.526;9.928;2024-02-23T06:49:42;97756.56;;;6.23;89.68
25584;BME280;13463;51.526;9.928;2024-02-23T06:52:10;97761.63;;;6.26;90.59
25584;BME280;13463;51.526;9.928;2024-02-23T06:54:37;97767.09;;;6.23;89.77
25584;BME280;13463;51.526;9.928;2024-02-23T06:57:04;97769.00;;;6.21;90.02
25584;BME280;13463;51.526;9.928;2024-02-23T06:59:30;97772.47;;;6.22;89.79
25584;BME280;13463;51.526;9.928;2024-02-23T07:01:58;97782.59;;;6.15;90.80
25584;BME280;13463;51.526;9.928;2024-02-23T07:04:25;97782.25;;;6.20;91.53
25584;BME280;13463;51.526;9.928;2024-02-23T07:06:52;97791.09;;;6.19;90.85
25584;BME280;13463;51.526;9.928;2024-02-23T07:09:18;97794.59;;;6.19;90.74
25584;BME280;13463;51.526;9.928;2024-02-23T07:11:45;97799.94;;;6.18;89.72
25584;BME280;13463;51.526;9.928;2024-02-23T07:14:12;97809.19;;;6.23;91.16
25584;BME280;13463;51.526;9.928;2024-02-23T07:16:40;97818.47;;;6.16;91.69
25584;BME280;13463;51.526;9.928;2024-02-23T07:19:07;97818.03;;;6.22;90.57
25584;BME280;13463;51.526;9.928;2024-02-23T07:21:34;97818.03;;;6.22;90.21
25584;BME280;13463;51.526;9.928;2024-02-23T07:24:01;97827.66;;;6.34;89.75
25584;BME280;13463;51.526;9.928;2024-02-23T07:26:28;97827.47;;;6.37;90.59
25584;BME280;13463;51.526;9.928;2024-02-23T07:28:55;97836.81;;;6.41;90.99
25584;BME280;13463;51.526;9.928;2024-02-23T07:31:22;97837.78;;;6.40;90.46
25584;BME280;13463;51.526;9.928;2024-02-23T07:33:49;97839.44;;;6.41;92.00
25584;BME280;13463;51.526;9.928;2024-02-23T07:36:18;97846.41;;;6.42;92.44
25584;BME280;13463;51.526;9.928;2024-02-23T07:38:45;97842.38;;;6.49;90.92
25584;BME280;13463;51.526;9.928;2024-02-23T07:41:11;97848.88;;;6.56;91.14
25584;BME280;13463;51.526;9.928;2024-02-23T07:43:39;97854.59;;;6.50;90.26
25584;BME280;13463;51.526;9.928;2024-02-23T07:46:06;97852.47;;;6.55;91.92
25584;BME280;13463;51.526;9.928;2024-02-23T07:48:35;97857.72;;;6.55;91.70
25584;BME280;13463;51.526;9.928;2024-02-23T07:51:05;97860.03;;;6.60;91.20
25584;BME280;13463;51.526;9.928;2024-02-23T07:53:32;97861.09;;;6.81;89.52
25584;BME280;13463;51.526;9.928;2024-02-23T07:55:59;97866.97;;;6.61;89.70
25584;BME280;13463;51.526;9.928;2024-02-23T07:58:28;97861.88;;;6.70;86.36
25584;BME280;13463;51.526;9.928;2024-02-23T08:00:55;97869.38;;;6.88;85.46
25584;BME280;13463;51.526;9.928;2024-02-23T08:03:22;97854.06;;;6.93;84.53
25584;BME280;13463;51.526;9.928;2024-02-23T08:05:48;97861.88;;;6.94;84.14
25584;BME280;13463;51.526;9.928;2024-02-23T08:08:15;97860.00;;;7.07;83.53
25584;BME280;13463;51.526;9.928;2024-02-23T08:10:42;97864.97;;;7.23;80.53
25584;BME280;13463;51.526;9.928;2024-02-23T08:13:08;97870.75;;;7.28;78.67
25584;BME280;13463;51.526;9.928;2024-02-23T08:15:37;97857.22;;;7.44;76.87
25584;BME280;13463;51.526;9.928;2024-02-23T08:18:04;97866.69;;;7.46;74.27
25584;BME280;13463;51.526;9.928;2024-02-23T08:20:30;97857.13;;;7.56;73.61
25584;BME280;13463;51.526;9.928;2024-02-23T08:22:57;97849.69;;;7.61;74.71
25584;BME280;13463;51.526;9.928;2024-02-23T08:25:24;97858.22;;;7.87;70.33
25584;BME280;13463;51.526;9.928;2024-02-23T08:27:50;97856.31;;;7.78;68.92
25584;BME280;13463;51.526;9.928;2024-02-23T08:30:17;97850.19;;;7.77;70.95
25584;BME280;13463;51.526;9.928;2024-02-23T08:32:44;97863.03;;;8.04;69.90
25584;BME280;13463;51.526;9.928;2024-02-23T08:35:10;97859.56;;;7.92;68.69
25584;BME280;13463;51.526;9.928;2024-02-23T08:37:37;97857.16;;;7.78;69.96
25584;BME280;13463;51.526;9.928;2024-02-23T08:40:06;97867.44;;;7.59;71.29
25584;BME280;13463;51.526;9.928;2024-02-23T08:42:33;97881.13;;;7.75;69.71
25584;BME280;13463;51.526;9.928;2024-02-23T08:44:59;97878.59;;;7.63;69.63
25584;BME280;13463;51.526;9.928;2024-02-23T08:47:26;97885.66;;;7.51;70.93
25584;BME280;13463;51.526;9.928;2024-02-23T08:49:58;97892.13;;;7.58;69.00
25584;BME280;13463;51.526;9.928;2024-02-23T08:52:25;97887.47;;;7.62;66.84
25584;BME280;13463;51.526;9.928;2024-02-23T08:54:52;97884.34;;;7.57;67.43
25584;BME280;13463;51.526;9.928;2024-02-23T08:57:18;97883.00;;;7.62;66.48
25584;BME280;13463;51.526;9.928;2024-02-23T08:59:46;97873.44;;;7.72;67.88
25584;BME280;13463;51.526;9.928;2024-02-23T09:02:13;97868.91;;;7.85;66.94
25584;BME280;13463;51.526;9.928;2024-02-23T09:04:40;97879.94;;;8.01;65.72
25584;BME280;13463;51.526;9.928;2024-02-23T09:07:07;97875.63;;;8.12;65.30
25584;BME280;13463;51.526;9.928;2024-02-23T09:09:34;97874.19;;;7.85;68.57
25584;BME280;13463;51.526;9.928;2024-02-23T09:12:01;97873.09;;;8.10;65.95
25584;BME280;13463;51.526;9.928;2024-02-23T09:14:27;97868.03;;;8.51;64.74
25584;BME280;13463;51.526;9.928;2024-02-23T09:16:55;97869.59;;;8.65;66.26
25584;BME280;13463;51.526;9.928;2024-02-23T09:19:21;97866.19;;;8.74;63.69
25584;BME280;13463;51.526;9.928;2024-02-23T09:21:48;97867.16;;;8.73;64.68
25584;BME280;13463;51.526;9.928;2024-02-23T09:24:15;97866.97;;;8.54;65.23
25584;BME280;13463;51.526;9.928;2024-02-23T09:26:41;97869.84;;;8.18;66.91
25584;BME280;13463;51.526;9.928;2024-02-23T09:29:08;97867.13;;;8.19;66.79
25584;BME280;13463;51.526;9.928;2024-02-23T09:31:35;97877.06;;;8.16;67.18
25584;BME280;13463;51.526;9.928;2024-02-23T09:34:01;97878.97;;;8.14;66.60
25584;BME280;13463;51.526;9.928;2024-02-23T09:36:29;97874.66;;;8.01;67.69
25584;BME280;13463;51.526;9.928;2024-02-23T09:38:56;97890.16;;;7.95;67.20
25584;BME280;13463;51.526;9.928;2024-02-23T09:41:23;97864.72;;;7.94;69.40
25584;BME280;13463;51.526;9.928;2024-02-23T09:43:50;97864.34;;;7.98;68.72
25584;BME280;13463;51.526;9.928;2024-02-23T09:46:18;97866.75;;;8.24;67.48
25584;BME280;13463;51.526;9.928;2024-02-23T09:48:45;97855.00;;;8.28;66.42
25584;BME280;13463;51.526;9.928;2024-02-23T09:51:13;97853.53;;;8.46;64.19
25584;BME280;13463;51.526;9.928;2024-02-23T09:53:41;97850.44;;;8.41;63.36
25584;BME280;13463;51.526;9.928;2024-02-23T09:56:09;97863.13;;;8.47;60.85
25584;BME280;13463;51.526;9.928;2024-02-23T09:58:37;97855.34;;;8.34;61.62
25584;BME280;13463;51.526;9.928;2024-02-23T10:01:04;97865.78;;;8.47;61.59
25584;BME280;13463;51.526;9.928;2024-02-23T10:03:31;97861.09;;;8.50;62.09
25584;BME280;13463;51.526;9.928;2024-02-23T10:05:59;97850.88;;;8.57;60.92
25584;BME280;13463;51.526;9.928;2024-02-23T10:08:28;97862.41;;;8.45;59.60
25584;BME280;13463;51.526;9.928;2024-02-23T10:10:55;97859.94;;;8.75;58.99
25584;BME280;13463;51.526;9.928;2024-02-23T10:13:23;97866.16;;;8.85;58.52
25584;BME280;13463;51.526;9.928;2024-02-23T10:15:53;97845.16;;;9.04;55.50
25584;BME280;13463;51.526;9.928;2024-02-23T10:18:39;97864.41;;;9.06;57.06
25584;BME280;13463;51.526;9.928;2024-02-23T10:21:06;97852.34;;;9.13;58.01
25584;BME280;13463;51.526;9.928;2024-02-23T10:23:33;97866.38;;;9.14;57.37
25584;BME280;13463;51.526;9.928;2024-02-23T10:26:07;97855.25;;;9.10;56.90
25584;BME280;13463;51.526;9.928;2024-02-23T10:28:36;97855.16;;;9.32;57.61
25584;BME280;13463;51.526;9.928;2024-02-23T10:31:05;97856.31;;;9.39;55.54
25584;BME280;13463;51.526;9.928;2024-02-23T10:33:38;97878.72;;;9.24;55.61
25584;BME280;13463;51.526;9.928;2024-02-23T10:36:07;97859.91;;;9.38;55.63
25584;BME280;13463;51.526;9.928;2024-02-23T10:38:35;97862.63;;;9.69;55.27
25584;BME280;13463;51.526;9.928;2024-02-23T10:41:05;97867.91;;;9.69;56.03
25584;BME280;13463;51.526;9.928;2024-02-23T10:43:37;97874.81;;;9.60;55.72
25584;BME280;13463;51.526;9.928;2024-02-23T10:46:05;97867.47;;;9.94;56.07
25584;BME280;13463;51.526;9.928;2024-02-23T10:48:36;97874.03;;;9.69;53.74
25584;BME280;13463;51.526;9.928;2024-02-23T10:51:05;97862.81;;;10.07;55.04
25584;BME280;13463;51.526;9.928;2024-02-23T10:53:34;97874.06;;;9.79;55.97
25584;BME280;13463;51.526;9.928;2024-02-23T10:56:03;97873.56;;;9.85;55.87
25584;BME280;13463;51.526;9.928;2024-02-23T10:58:30;97867.38;;;10.26;55.23
25584;BME280;13463;51.526;9.928;2024-02-23T11:01:01;97861.22;;;10.25;55.90
25584;BME280;13463;51.526;9.928;2024-02-23T11:03:30;97861.72;;;10.10;55.82
25584;BME280;13463;51.526;9.928;2024-02-23T11:05:59;97852.69;;;9.91;55.77
25584;BME280;13463;51.526;9.928;2024-02-23T11:08:29;97850.38;;;9.98;57.07
25584;BME280;13463;51.526;9.928;2024-02-23T11:10:56;97860.22;;;9.96;56.81
25584;BME280;13463;51.526;9.928;2024-02-23T11:13:38;97840.59;;;9.68;57.44
25584;BME280;13463;51.526;9.928;2024-02-23T11:16:06;97850.59;;;9.65;57.27
25584;BME280;13463;51.526;9.928;2024-02-23T11:18:38;97854.84;;;9.77;59.75
25584;BME280;13463;51.526;9.928;2024-02-23T11:21:09;97847.44;;;10.01;55.65
25584;BME280;13463;51.526;9.928;2024-02-23T11:23:42;97859.09;;;9.89;56.41
25584;BME280;13463;51.526;9.928;2024-02-23T11:26:10;97848.06;;;9.84;55.97
25584;BME280;13463;51.526;9.928;2024-02-23T11:28:47;97854.16;;;9.75;56.79
25584;BME280;13463;51.526;9.928;2024-02-23T11:31:22;97850.25;;;9.79;55.98
25584;BME280;13463;51.526;9.928;2024-02-23T11:33:54;97850.34;;;9.68;55.15
25584;BME280;13463;51.526;9.928;2024-02-23T11:36:24;97848.28;;;9.51;56.28
25584;BME280;13463;51.526;9.928;2024-02-23T11:38:56;97860.69;;;9.71;57.31
25584;BME280;13463;51.526;9.928;2024-02-23T11:41:24;97846.94;;;9.56;56.35
25584;BME280;13463;51.526;9.928;2024-02-23T11:43:51;97857.78;;;9.53;55.65
25584;BME280;13463;51.526;9.928;2024-02-23T11:46:21;97855.28;;;9.52;54.96
25584;BME280;13463;51.526;9.928;2024-02-23T11:48:51;97856.47;;;9.68;55.34
25584;BME280;13463;51.526;9.928;2024-02-23T11:51:22;97869.63;;;9.79;54.69
25584;BME280;13463;51.526;9.928;2024-02-23T11:53:50;97871.88;;;9.84;53.61
25584;BME280;13463;51.526;9.928;2024-02-23T11:56:16;97862.09;;;9.75;54.14
25584;BME280;13463;51.526;9.928;2024-02-23T11:58:45;97869.31;;;9.73;53.73
25584;BME280;13463;51.526;9.928;2024-02-23T12:01:12;97877.94;;;9.95;53.49
25584;BME280;13463;51.526;9.928;2024-02-23T12:03:39;97877.41;;;9.71;54.19
25584;BME280;13463;51.526;9.928;2024-02-23T12:06:07;97871.13;;;9.93;53.87
25584;BME280;13463;51.526;9.928;2024-02-23T12:08:34;97855.34;;;10.12;53.06
25584;BME280;13463;51.526;9.928;2024-02-23T12:11:07;97858.69;;;10.14;53.38
25584;BME280;13463;51.526;9.928;2024-02-23T12:13:36;97850.03;;;10.12;54.97
25584;BME280;13463;51.526;9.928;2024-02-23T12:16:02;97853.75;;;10.40;53.32
25584;BME280;13463;51.526;9.928;2024-02-23T12:18:29;97848.97;;;10.24;54.59
25584;BME280;13463;51.526;9.928;2024-02-23T12:21:06;97857.97;;;10.61;53.25
25584;BME280;13463;51.526;9.928;2024-02-23T12:23:44;97847.56;;;11.08;51.64
25584;BME280;13463;51.526;9.928;2024-02-23T12:26:16;97855.53;;;11.08;50.88
25584;BME280;13463;51.526;9.928;2024-02-23T12:28:43;97851.63;;;11.02;51.25
25584;BME280;13463;51.526;9.928;2024-02-23T12:31:10;97844.34;;;11.14;51.22
25584;BME280;13463;51.526;9.928;2024-02-23T12:33:38;97854.91;;;10.66;52.24
25584;BME280;13463;51.526;9.928;2024-02-23T12:36:10;97847.31;;;11.01;52.01
25584;BME280;13463;51.526;9.928;2024-02-23T12:38:37;97846.28;;;10.73;52.26
25584;BME280;13463;51.526;9.928;2024-02-23T12:41:04;97855.94;;;10.75;52.23
25584;BME280;13463;51.526;9.928;2024-02-23T12:43:31;97857.34;;;10.29;52.17
25584;BME280;13463;51.526;9.928;2024-02-23T12:45:58;97859.91;;;10.50;53.38
25584;BME280;13463;51.526;9.928;2024-02-23T12:48:25;97869.91;;;10.37;53.54
25584;BME280;13463;51.526;9.928;2024-02-23T12:50:51;97866.50;;;10.55;53.47
25584;BME280;13463;51.526;9.928;2024-02-23T12:53:37;97878.38;;;10.70;53.73
25584;BME280;13463;51.526;9.928;2024-02-23T12:56:06;97855.09;;;10.84;53.18
25584;BME280;13463;51.526;9.928;2024-02-23T12:58:37;97862.72;;;10.48;54.94
25584;BME280;13463;51.526;9.928;2024-02-23T13:01:04;97865.53;;;10.66;53.06
25584;BME280;13463;51.526;9.928;2024-02-23T13:03:33;97864.44;;;10.88;52.72
25584;BME280;13463;51.526;9.928;2024-02-23T13:06:00;97863.16;;;10.63;56.17
25584;BME280;13463;51.526;9.928;2024-02-23T13:08:27;97858.81;;;10.52;54.55
25584;BME280;13463;51.526;9.928;2024-02-23T13:10:54;97868.09;;;10.37;55.57
25584;BME280;13463;51.526;9.928;2024-02-23T13:13:22;97878.44;;;10.40;54.43